Time;durP1;ratioP1;P1;durP2;ratioP2;P2;SDS_P1;SDS_P2;PMS_P1;PMS_P2;Temp;Humidity;BMP_temperature;BMP_pressure;BME280_temperature;BME280_humidity;BME280_pressure;Samples;Min_cycle;Max_cycle;Signal;HPM_P1;HPM_P2
2022/12/12 00:01:50;;;;;;;;;2.75;2.00;;;;;5.85;75.96;99634.75;5055838;28;45548;-76
2022/12/12 00:04:15;;;;;;;;;5.00;2.00;;;;;5.86;76.33;99642.59;5056703;28;45377;-75
2022/12/12 00:06:41;;;;;;;;;1.50;1.50;;;;;5.84;76.54;99633.88;5054588;28;45323;-75
2022/12/12 00:09:08;;;;;;;;;4.50;4.50;;;;;5.81;76.18;99633.78;5054676;28;45461;-77
2022/12/12 00:11:34;;;;;;;;;5.00;4.00;;;;;5.78;77.08;99642.31;5056960;28;45382;-76
2022/12/12 00:14:00;;;;;;;;;6.00;5.00;;;;;5.73;76.88;99633.50;5056367;28;45391;-66
2022/12/12 00:16:25;;;;;;;;;4.00;3.00;;;;;5.64;76.51;99640.09;5055465;28;45666;-69
2022/12/12 00:18:51;;;;;;;;;3.50;2.50;;;;;5.58;76.31;99640.75;5056800;28;45450;-68
2022/12/12 00:21:20;;;;;;;;;6.00;5.00;;;;;5.58;76.55;99638.16;5053919;28;45675;-76
2022/12/12 00:23:46;;;;;;;;;7.00;5.00;;;;;5.54;76.97;99631.09;5057214;28;45581;-77
2022/12/12 00:26:19;;;;;;;;;5.00;4.00;;;;;5.52;76.75;99635.34;5055780;28;46275;-69
2022/12/12 00:28:45;;;;;;;;;3.00;3.00;;;;;5.49;76.98;99635.22;5055529;28;45552;-73
2022/12/12 00:31:10;;;;;;;;;6.75;6.25;;;;;5.46;77.26;99637.72;5056195;28;45521;-70
2022/12/12 00:33:36;;;;;;;;;4.50;2.75;;;;;5.11;77.10;99581.25;5056567;28;45398;-76
2022/12/12 00:36:02;;;;;;;;;3.00;3.00;;;;;5.36;76.97;99627.03;5056245;28;46128;-75
2022/12/12 00:38:27;;;;;;;;;2.75;2.00;;;;;5.31;77.27;99607.88;5056370;28;45546;-67
2022/12/12 00:40:57;;;;;;;;;6.25;4.50;;;;;5.28;76.90;99612.91;5056413;28;45543;-75
2022/12/12 00:43:24;;;;;;;;;7.00;6.00;;;;;5.25;77.13;99619.69;5055259;28;45434;-67
2022/12/12 00:45:50;;;;;;;;;5.75;5.75;;;;;5.22;77.53;99619.59;5054629;28;46029;-74
2022/12/12 00:48:16;;;;;;;;;6.00;5.00;;;;;5.00;77.55;99590.31;5055749;28;45570;-71
2022/12/12 00:50:42;;;;;;;;;7.00;6.00;;;;;5.17;77.84;99620.31;5053706;28;45476;-75
2022/12/12 00:53:08;;;;;;;;;4.50;3.50;;;;;5.03;77.56;99605.09;5056040;28;45623;-71
2022/12/12 00:55:33;;;;;;;;;5.00;3.00;;;;;5.13;77.84;99630.47;5055624;28;45440;-72
2022/12/12 00:57:59;;;;;;;;;1.00;1.00;;;;;5.06;77.62;99624.19;5055249;28;45592;-68
2022/12/12 01:00:25;;;;;;;;;3.00;2.75;;;;;4.99;77.81;99619.59;5054953;28;46610;-67
2022/12/12 01:02:51;;;;;;;;;2.00;2.00;;;;;4.97;77.58;99600.56;5055674;28;45559;-74
2022/12/12 01:05:17;;;;;;;;;3.00;2.00;;;;;4.98;78.37;99594.56;5055524;28;45941;-73
2022/12/12 01:07:43;;;;;;;;;3.00;2.75;;;;;4.97;77.99;99592.78;5056036;28;45471;-72
2022/12/12 01:10:09;;;;;;;;;2.00;1.00;;;;;4.96;78.53;99597.09;5054782;28;45599;-66
2022/12/12 01:12:35;;;;;;;;;2.00;2.00;;;;;4.95;78.70;99607.38;5053261;28;45745;-77
2022/12/12 01:15:01;;;;;;;;;1.00;1.00;;;;;4.92;78.06;99607.28;5053752;28;46612;-77
2022/12/12 01:17:26;;;;;;;;;2.00;2.00;;;;;4.91;78.48;99616.72;5053276;28;45552;-68
2022/12/12 01:19:52;;;;;;;;;3.00;2.25;;;;;4.90;78.67;99624.47;5055162;28;45499;-72
2022/12/12 01:22:18;;;;;;;;;4.00;2.75;;;;;4.86;78.78;99617.41;5055321;28;45466;-76
2022/12/12 01:24:43;;;;;;;;;3.00;3.00;;;;;4.82;79.23;99626.75;5054077;28;45511;-75
2022/12/12 01:27:09;;;;;;;;;7.25;5.50;;;;;4.79;79.18;99636.97;5052667;28;45312;-72
2022/12/12 01:29:35;;;;;;;;;6.25;6.25;;;;;4.74;79.00;99639.41;5055087;28;45340;-72
2022/12/12 01:32:01;;;;;;;;;10.00;9.25;;;;;4.67;79.27;99636.50;5053777;28;45364;-68
2022/12/12 01:34:26;;;;;;;;;5.00;5.00;;;;;4.70;80.00;99639.22;5055264;28;46439;-68
2022/12/12 01:36:52;;;;;;;;;5.00;5.00;;;;;4.70;79.97;99637.50;5054541;28;45417;-68
2022/12/12 01:39:17;;;;;;;;;4.75;3.00;;;;;4.71;80.18;99626.31;5055163;28;45327;-72
2022/12/12 01:41:43;;;;;;;;;5.50;4.00;;;;;4.74;79.63;99626.47;5052754;28;45348;-68
2022/12/12 01:44:44;;;;;;;;;4.00;4.00;;;;;4.78;79.84;99635.22;5055279;28;45953;-73
2022/12/12 01:47:15;;;;;;;;;5.75;5.00;;;;;4.83;79.87;99638.84;5051918;28;45357;-68
2022/12/12 01:49:45;;;;;;;;;5.75;4.50;;;;;4.84;78.89;99645.81;5054317;28;45806;-69
2022/12/12 01:52:20;;;;;;;;;5.00;4.50;;;;;4.83;78.40;99659.56;5055082;28;45340;-67
2022/12/12 01:54:52;;;;;;;;;5.00;5.00;;;;;4.85;78.40;99668.25;5054874;28;45712;-68
2022/12/12 01:57:30;;;;;;;;;11.00;9.75;;;;;4.85;78.49;99655.31;5052715;28;45401;-68
2022/12/12 01:59:58;;;;;;;;;12.25;10.00;;;;;4.85;78.79;99657.91;5050961;28;45442;-68
2022/12/12 02:02:24;;;;;;;;;10.75;10.00;;;;;4.86;78.83;99653.63;5055571;28;45362;-69
2022/12/12 02:04:50;;;;;;;;;11.00;11.00;;;;;4.86;78.82;99657.09;5054709;28;45415;-68
2022/12/12 02:07:16;;;;;;;;;10.00;7.00;;;;;4.77;78.35;99651.56;5054240;28;45517;-74
2022/12/12 02:09:43;;;;;;;;;5.00;5.00;;;;;4.73;78.57;99654.84;5055038;28;47197;-74
2022/12/12 02:12:12;;;;;;;;;5.00;3.00;;;;;4.71;78.75;99666.84;5055200;28;45473;-71
2022/12/12 02:14:42;;;;;;;;;7.25;6.00;;;;;4.71;78.50;99669.44;5052150;28;46171;-68
2022/12/12 02:17:35;;;;;;;;;6.50;4.50;;;;;4.64;78.97;99682.97;5052009;28;45555;-66
2022/12/12 02:20:29;;;;;;;;;6.50;5.75;;;;;4.62;79.40;99676.84;5050083;28;45351;-72
2022/12/12 02:23:29;;;;;;;;;5.25;5.00;;;;;4.57;79.56;99687.88;5051690;28;45465;-69
2022/12/12 02:26:52;;;;;;;;;5.00;4.25;;;;;4.54;79.67;99685.19;5055213;28;46193;-75
2022/12/12 02:29:56;;;;;;;;;6.00;5.25;;;;;4.53;79.76;99687.69;5029850;28;45465;-69
2022/12/12 02:32:43;;;;;;;;;4.75;4.75;;;;;4.52;80.43;99684.22;5027319;28;45832;-75
2022/12/12 02:35:30;;;;;;;;;5.25;5.00;;;;;4.37;80.27;99653.44;5051598;28;45528;-72
2022/12/12 02:37:59;;;;;;;;;3.25;2.75;;;;;4.53;80.26;99670.47;5050425;28;45489;-74
2022/12/12 02:40:30;;;;;;;;;6.00;6.00;;;;;4.53;79.71;99659.25;5054977;28;45554;-69
2022/12/12 02:43:10;;;;;;;;;5.50;5.00;;;;;4.52;79.93;99660.09;5052443;28;45474;-68
2022/12/12 02:45:54;;;;;;;;;5.50;5.25;;;;;4.48;79.62;99665.97;5054925;28;45537;-76
2022/12/12 02:48:33;;;;;;;;;10.75;10.25;;;;;4.51;79.42;99664.34;5052995;28;45550;-74
2022/12/12 02:51:01;;;;;;;;;2.50;2.50;;;;;4.46;79.28;99655.53;5052366;28;45492;-70
2022/12/12 02:53:27;;;;;;;;;3.25;3.25;;;;;4.46;79.37;99641.75;5054428;28;45532;-68
2022/12/12 02:56:30;;;;;;;;;2.75;2.75;;;;;4.47;79.65;99641.78;5051525;28;45576;-74
2022/12/12 02:58:56;;;;;;;;;2.00;2.00;;;;;4.49;80.49;99632.38;5058214;28;45481;-76
2022/12/12 03:01:37;;;;;;;;;2.75;2.25;;;;;4.55;80.30;99631.72;5053256;28;45487;-67
2022/12/12 03:10:08;;;;;;;;;3.00;2.25;;;;;4.84;80.03;99616.47;5055806;28;45582;-72
2022/12/12 03:12:59;;;;;;;;;4.00;4.00;;;;;4.93;79.98;99603.84;5054069;28;45527;-74
2022/12/12 03:15:49;;;;;;;;;5.00;5.00;;;;;5.01;79.99;99589.47;5056124;28;45491;-69
2022/12/12 03:18:33;;;;;;;;;9.25;5.75;;;;;5.09;79.44;99593.25;5056929;28;45534;-73
2022/12/12 03:21:28;;;;;;;;;5.50;3.00;;;;;5.15;78.81;99595.16;5054960;28;46064;-72
2022/12/12 03:23:58;;;;;;;;;5.75;5.50;;;;;5.08;78.76;99591.50;5049982;28;45538;-74
2022/12/12 03:26:35;;;;;;;;;5.50;5.50;;;;;5.23;78.39;99608.41;5056508;28;45314;-72
2022/12/12 03:29:10;;;;;;;;;4.50;4.00;;;;;5.11;78.60;99590.72;5055573;28;45396;-67
2022/12/12 03:31:39;;;;;;;;;3.00;3.00;;;;;5.26;78.24;99621.47;5056856;28;45300;-75
2022/12/12 03:34:25;;;;;;;;;3.00;3.00;;;;;5.24;77.91;99610.19;5056593;28;45603;-68
2022/12/12 03:37:00;;;;;;;;;3.00;2.75;;;;;5.01;78.07;99570.50;5055216;28;45410;-67
2022/12/12 03:39:31;;;;;;;;;3.00;2.75;;;;;5.03;78.24;99571.44;5057874;28;45575;-71
2022/12/12 03:42:08;;;;;;;;;2.50;2.50;;;;;4.93;78.29;99559.84;5056644;28;46062;-74
2022/12/12 03:44:44;;;;;;;;;9.00;6.00;;;;;5.03;78.42;99594.72;5056084;28;45519;-68
2022/12/12 03:47:17;;;;;;;;;7.50;5.50;;;;;4.84;78.00;99575.06;5057230;28;45621;-68
2022/12/12 03:50:09;;;;;;;;;9.00;6.00;;;;;4.78;77.81;99589.53;5056818;28;45698;-75
2022/12/12 03:52:43;;;;;;;;;5.00;5.00;;;;;4.73;78.06;99600.53;5054391;28;46155;-75
2022/12/12 03:55:21;;;;;;;;;5.25;5.25;;;;;4.44;78.28;99556.34;5056440;28;45437;-67
2022/12/12 03:58:07;;;;;;;;;7.00;6.50;;;;;4.69;78.21;99593.47;5056444;28;45487;-68
2022/12/12 04:00:36;;;;;;;;;1.00;1.00;;;;;4.63;78.34;99598.41;5056388;28;45531;-75
2022/12/12 04:03:07;;;;;;;;;6.00;5.00;;;;;4.61;78.69;99597.47;5055941;28;46084;-68
2022/12/12 04:12:57;;;;;;;;;6.25;6.00;;;;;4.45;79.61;99589.09;5043478;28;45500;-71
2022/12/12 04:14:17;;;;;;;;;4.00;3.25;;;;;4.48;79.31;99594.41;5038553;28;45382;-76
2022/12/12 04:16:45;;;;;;;;;6.00;5.00;;;;;4.52;79.27;99591.13;5049126;28;45337;-76
2022/12/12 04:25:06;;;;;;;;;3.25;2.25;;;;;4.57;79.96;99583.53;5058341;28;45712;-68
2022/12/12 04:27:40;;;;;;;;;3.25;3.25;;;;;4.59;80.12;99576.72;5057175;28;45385;-75
2022/12/12 04:30:11;;;;;;;;;6.00;4.75;;;;;4.67;79.33;99585.63;5058231;28;45402;-75
2022/12/12 04:32:58;;;;;;;;;3.00;3.00;;;;;4.69;79.70;99590.88;5057961;28;45420;-75
2022/12/12 04:35:45;;;;;;;;;3.25;3.25;;;;;4.69;79.35;99588.28;5057030;28;46260;-75
2022/12/12 04:38:20;;;;;;;;;4.00;4.00;;;;;4.69;79.38;99598.63;5056060;28;46195;-76
2022/12/12 04:40:50;;;;;;;;;14.50;14.00;;;;;4.68;78.91;99604.66;5058506;28;46079;-75
2022/12/12 04:43:23;;;;;;;;;30.50;29.75;;;;;4.69;79.01;99603.81;5057376;28;45689;-73
2022/12/12 04:45:57;;;;;;;;;6.75;6.00;;;;;4.67;78.84;99605.47;5057660;28;46230;-75
2022/12/12 04:48:33;;;;;;;;;5.00;5.00;;;;;4.47;78.79;99564.19;5044778;28;45472;-76
2022/12/12 04:51:01;;;;;;;;;3.50;3.50;;;;;4.64;78.84;99585.53;5055512;28;45592;-68
2022/12/12 04:53:40;;;;;;;;;8.75;5.25;;;;;4.43;78.92;99541.63;5052302;28;45433;-75
2022/12/12 04:56:12;;;;;;;;;2.75;2.00;;;;;4.61;78.79;99558.66;5040694;28;46826;-75
2022/12/12 04:58:39;;;;;;;;;3.25;3.25;;;;;4.50;78.72;99553.97;5049079;28;45481;-68
2022/12/12 05:01:45;;;;;;;;;2.50;2.50;;;;;4.41;79.69;99555.31;5050683;28;45379;-75
2022/12/12 05:04:38;;;;;;;;;3.25;3.25;;;;;4.27;80.51;99547.03;5057596;28;45274;-76
2022/12/12 05:07:13;;;;;;;;;3.25;3.25;;;;;4.25;80.56;99554.72;5056980;28;45361;-67
2022/12/12 05:09:39;;;;;;;;;5.00;3.25;;;;;4.26;80.69;99561.66;5041076;28;45361;-75
2022/12/12 05:12:05;;;;;;;;;2.75;2.75;;;;;4.26;81.13;99559.09;5057205;28;45497;-68
2022/12/12 05:14:31;;;;;;;;;5.00;3.50;;;;;4.08;80.47;99529.91;5073292;28;45244;-75
2022/12/12 05:17:02;;;;;;;;;3.25;3.25;;;;;4.26;80.78;99572.00;5057187;28;45467;-67
2022/12/12 05:19:28;;;;;;;;;5.00;5.00;;;;;4.27;80.97;99567.72;5038062;28;45458;-76
2022/12/12 05:21:53;;;;;;;;;6.00;5.00;;;;;4.37;80.64;99569.84;5052682;28;45288;-71
2022/12/12 05:24:19;;;;;;;;;5.50;5.25;;;;;4.27;80.37;99528.94;5054671;28;45543;-75
2022/12/12 05:26:44;;;;;;;;;6.25;5.25;;;;;4.35;80.72;99532.69;5056148;28;45401;-68
2022/12/12 05:29:10;;;;;;;;;6.75;6.25;;;;;4.48;80.85;99531.47;5057084;28;45365;-76
2022/12/12 05:31:36;;;;;;;;;15.00;13.25;;;;;4.58;79.96;99529.28;5042437;28;45458;-74
2022/12/12 05:34:03;;;;;;;;;8.00;6.00;;;;;4.52;80.51;99497.16;5055730;28;45401;-74
2022/12/12 05:36:29;;;;;;;;;5.50;5.00;;;;;4.82;79.48;99535.31;5056980;28;46049;-74
2022/12/12 05:38:54;;;;;;;;;5.75;3.50;;;;;4.83;79.62;99527.59;5045922;28;45401;-70
2022/12/12 05:41:20;;;;;;;;;7.00;6.25;;;;;4.87;79.65;99531.16;5052302;28;45318;-68
2022/12/12 05:43:46;;;;;;;;;8.25;7.00;;;;;4.91;79.41;99522.69;5055397;28;45389;-73
2022/12/12 05:46:11;;;;;;;;;15.50;14.50;;;;;4.92;79.56;99504.63;5043518;28;45471;-69
2022/12/12 05:48:37;;;;;;;;;14.75;12.75;;;;;4.92;78.98;99494.28;5056940;28;45230;-67
2022/12/12 05:51:03;;;;;;;;;21.75;20.25;;;;;4.91;78.82;99492.50;5057106;28;45479;-74
2022/12/12 05:53:28;;;;;;;;;11.50;10.00;;;;;4.90;78.99;99479.53;5040475;28;46997;-75
2022/12/12 05:55:54;;;;;;;;;10.25;9.00;;;;;4.77;79.95;99473.03;5056344;28;45614;-74
2022/12/12 05:58:20;;;;;;;;;5.75;5.75;;;;;4.72;80.24;99469.41;5057000;28;45389;-66
2022/12/12 06:00:47;;;;;;;;;7.00;6.25;;;;;4.66;79.67;99461.44;5056289;28;45500;-75
2022/12/12 06:03:13;;;;;;;;;5.00;5.00;;;;;4.67;81.12;99461.47;5055628;28;45455;-75
2022/12/12 06:05:39;;;;;;;;;5.75;5.50;;;;;4.76;80.25;99450.59;5055802;28;46193;-72
2022/12/12 06:08:05;;;;;;;;;31.50;26.50;;;;;4.87;79.99;99444.06;5056635;28;45246;-76
2022/12/12 06:10:30;;;;;;;;;27.50;25.50;;;;;4.90;79.57;99439.00;5056826;28;45843;-68
2022/12/12 06:12:56;;;;;;;;;29.50;28.50;;;;;4.96;79.21;99436.63;5056292;28;45784;-67
2022/12/12 06:15:21;;;;;;;;;20.00;19.00;;;;;5.04;79.01;99441.19;5056652;28;46024;-67
2022/12/12 06:17:50;;;;;;;;;29.75;26.50;;;;;5.09;78.89;99426.69;5046337;28;46329;-67
2022/12/12 06:20:16;;;;;;;;;11.00;11.00;;;;;5.11;78.38;99413.00;5051571;28;45485;-75
2022/12/12 06:22:41;;;;;;;;;11.50;11.50;;;;;5.21;78.27;99427.09;5055224;28;45545;-67
2022/12/12 06:25:08;;;;;;;;;28.75;27.75;;;;;5.26;78.07;99412.59;5049561;28;45512;-74
2022/12/12 06:27:33;;;;;;;;;18.00;15.75;;;;;5.36;78.05;99409.47;5043341;28;45539;-68
2022/12/12 06:29:59;;;;;;;;;10.75;9.75;;;;;5.42;77.91;99413.13;5051876;28;45385;-69
2022/12/12 06:32:25;;;;;;;;;10.50;10.00;;;;;5.47;77.81;99396.91;5052813;28;45499;-75
2022/12/12 06:34:50;;;;;;;;;23.50;23.00;;;;;5.58;77.69;99385.13;5054043;28;46112;-68
2022/12/12 06:37:16;;;;;;;;;62.25;52.25;;;;;5.61;77.68;99384.38;5054160;28;45424;-76
2022/12/12 06:39:42;;;;;;;;;36.25;33.25;;;;;5.64;77.32;99384.44;5054733;28;45549;-76
2022/12/12 06:42:07;;;;;;;;;37.50;34.00;;;;;5.63;77.18;99382.72;5053068;28;45325;-71
2022/12/12 06:44:33;;;;;;;;;40.00;37.50;;;;;5.64;77.46;99389.63;5053276;28;46284;-76
2022/12/12 06:46:59;;;;;;;;;64.75;54.75;;;;;5.65;77.47;99391.41;5053881;28;45522;-73
2022/12/12 06:49:24;;;;;;;;;31.00;30.50;;;;;5.69;77.09;99397.53;5049084;28;45510;-74
2022/12/12 06:51:50;;;;;;;;;28.25;25.25;;;;;5.80;77.16;99395.28;5054268;28;45290;-74
2022/12/12 06:54:17;;;;;;;;;21.25;20.00;;;;;5.86;76.87;99396.34;5053803;28;47141;-76
2022/12/12 06:56:43;;;;;;;;;16.75;16.25;;;;;5.91;76.87;99394.78;5054204;28;45788;-71
2022/12/12 06:59:10;;;;;;;;;21.00;18.75;;;;;5.71;76.55;99339.78;5053168;28;45392;-76
2022/12/12 07:01:36;;;;;;;;;22.00;16.00;;;;;5.96;76.38;99362.13;5054823;28;45514;-76
2022/12/12 07:04:01;;;;;;;;;19.75;18.75;;;;;5.98;76.44;99350.09;5051693;28;45626;-68
2022/12/12 07:06:27;;;;;;;;;16.25;15.25;;;;;5.69;76.56;99292.22;5053421;28;45506;-67
2022/12/12 07:08:53;;;;;;;;;25.00;20.00;;;;;5.96;76.46;99330.16;5053342;28;45475;-75
2022/12/12 07:11:22;;;;;;;;;27.50;24.25;;;;;6.03;76.47;99316.53;5054481;28;45505;-75
2022/12/12 07:13:48;;;;;;;;;16.00;14.75;;;;;5.83;76.02;99286.53;5053801;28;46141;-76
2022/12/12 07:16:14;;;;;;;;;14.00;12.00;;;;;5.81;76.22;99303.75;5053838;28;45525;-75
2022/12/12 07:18:40;;;;;;;;;17.50;15.00;;;;;5.72;76.11;99313.00;5050890;28;45895;-68
2022/12/12 07:21:08;;;;;;;;;19.00;16.75;;;;;5.67;76.94;99312.00;5054494;28;45343;-76
2022/12/12 07:23:34;;;;;;;;;21.50;20.50;;;;;5.71;76.58;99308.69;5053803;28;46053;-75
2022/12/12 07:26:08;;;;;;;;;14.75;12.00;;;;;5.74;76.77;99305.28;5051126;28;45370;-76
2022/12/12 07:28:34;;;;;;;;;15.50;12.00;;;;;5.71;76.40;99298.31;5053195;28;45473;-75
2022/12/12 07:31:05;;;;;;;;;15.75;15.50;;;;;5.71;76.64;99287.03;5053491;28;45591;-75
2022/12/12 07:33:31;;;;;;;;;11.25;11.00;;;;;5.69;76.76;99299.97;5053859;28;45448;-76
2022/12/12 07:35:58;;;;;;;;;11.00;10.00;;;;;5.71;76.40;99298.31;5053839;28;45330;-76
2022/12/12 07:38:24;;;;;;;;;10.00;9.75;;;;;5.75;76.69;99291.50;5052054;28;45422;-76
2022/12/12 07:40:50;;;;;;;;;10.00;8.25;;;;;5.82;76.66;99292.56;5053687;28;45432;-76
2022/12/12 07:43:15;;;;;;;;;10.00;8.50;;;;;5.85;76.55;99282.25;5051499;28;45615;-74
2022/12/12 07:45:45;;;;;;;;;10.50;7.50;;;;;5.97;76.35;99295.63;5051636;28;45498;-76
2022/12/12 07:48:11;;;;;;;;;11.00;11.00;;;;;5.85;75.59;99264.13;5054030;28;45698;-68
2022/12/12 07:50:38;;;;;;;;;14.00;12.00;;;;;6.05;75.51;99288.03;5057064;28;45574;-69
2022/12/12 07:53:04;;;;;;;;;16.25;14.00;;;;;6.12;75.49;99279.59;5057161;28;46269;-73
2022/12/12 07:55:30;;;;;;;;;10.25;10.25;;;;;6.26;75.47;99305.91;5055388;28;45501;-68
2022/12/12 07:57:56;;;;;;;;;14.00;14.00;;;;;6.29;75.29;99306.00;5056719;28;45575;-69
2022/12/12 08:00:21;;;;;;;;;13.25;11.50;;;;;6.32;75.13;99313.84;5054920;28;45395;-75
2022/12/12 08:02:48;;;;;;;;;12.00;11.00;;;;;6.31;75.29;99301.75;5056912;28;45990;-68
2022/12/12 08:05:15;;;;;;;;;25.25;20.25;;;;;6.21;75.32;99276.38;5055145;28;45439;-74
2022/12/12 08:07:40;;;;;;;;;48.75;37.00;;;;;6.29;74.87;99288.72;5053829;28;45394;-77
2022/12/12 08:10:07;;;;;;;;;12.00;12.00;;;;;6.44;75.05;99309.00;5057595;28;45484;-77
2022/12/12 08:12:32;;;;;;;;;16.00;12.00;;;;;6.50;75.05;99285.81;5057259;28;45460;-74
2022/12/12 08:14:58;;;;;;;;;18.00;18.00;;;;;6.65;74.47;99306.09;5057909;28;45845;-74
2022/12/12 08:17:24;;;;;;;;;20.25;17.00;;;;;6.65;74.76;99305.22;5057301;28;45571;-78
2022/12/12 08:19:49;;;;;;;;;16.75;16.00;;;;;6.68;74.63;99302.69;5057728;28;45384;-78
2022/12/12 08:22:15;;;;;;;;;15.25;13.75;;;;;6.94;74.36;99326.69;5057642;28;45943;-78
2022/12/12 08:24:40;;;;;;;;;12.75;12.75;;;;;7.03;74.52;99326.06;5057457;28;45409;-77
2022/12/12 08:27:06;;;;;;;;;29.50;27.75;;;;;7.07;74.06;99314.91;5054588;28;45765;-77
2022/12/12 08:29:31;;;;;;;;;19.25;18.00;;;;;7.21;73.74;99316.13;5043250;28;45615;-78
2022/12/12 08:31:57;;;;;;;;;9.00;7.50;;;;;7.29;73.88;99306.78;5056523;28;45610;-71
2022/12/12 08:34:22;;;;;;;;;15.00;14.25;;;;;7.25;73.72;99284.19;5057499;28;45820;-75
2022/12/12 08:40:16;;;;;;;;;24.25;21.75;;;;;7.36;73.54;99263.63;5057049;28;45646;-79
2022/12/12 08:42:42;;;;;;;;;22.00;21.00;;;;;7.47;73.28;99261.28;5057082;28;46004;-82
2022/12/12 08:45:08;;;;;;;;;17.50;16.75;;;;;7.55;72.78;99250.19;5057248;28;45295;-81
2022/12/12 08:47:33;;;;;;;;;16.25;14.50;;;;;7.53;72.91;99240.63;5057824;28;45428;-80
2022/12/12 08:49:59;;;;;;;;;19.00;17.25;;;;;7.54;72.81;99240.66;5057452;28;45401;-81
2022/12/12 08:52:24;;;;;;;;;27.50;24.75;;;;;7.57;72.42;99243.31;5056912;28;46230;-69
2022/12/12 08:54:49;;;;;;;;;20.25;19.00;;;;;7.61;72.96;99243.38;5057975;28;45567;-82
2022/12/12 08:57:15;;;;;;;;;49.25;43.00;;;;;7.66;72.79;99247.84;5057832;28;45345;-82
2022/12/12 08:59:40;;;;;;;;;21.75;17.25;;;;;7.71;72.59;99233.19;5050150;28;45349;-81
2022/12/12 09:02:10;;;;;;;;;37.50;34.50;;;;;7.77;72.57;99222.03;5053535;28;46051;-81
2022/12/12 09:04:36;;;;;;;;;16.50;13.50;;;;;7.85;72.38;99223.06;5057552;28;45405;-74
2022/12/12 09:07:02;;;;;;;;;6.00;4.50;;;;;7.95;72.19;99221.53;5057665;28;45483;-82
2022/12/12 09:09:28;;;;;;;;;8.75;8.25;;;;;8.06;71.76;99211.34;5051051;28;45471;-80
2022/12/12 09:11:53;;;;;;;;;16.50;16.50;;;;;8.10;72.55;99200.16;5048146;28;45302;-79
2022/12/12 09:14:19;;;;;;;;;17.50;15.25;;;;;8.17;72.17;99189.00;5043609;28;45215;-81
2022/12/12 09:16:44;;;;;;;;;19.50;18.50;;;;;8.25;72.43;99189.13;5053202;28;45164;-80
2022/12/12 09:19:10;;;;;;;;;26.75;23.25;;;;;8.02;72.00;99137.59;5043416;28;45564;-69
2022/12/12 09:21:36;;;;;;;;;24.75;22.25;;;;;8.27;71.90;99175.28;5046761;28;45981;-81
2022/12/12 09:24:01;;;;;;;;;29.00;23.00;;;;;8.34;71.90;99171.09;5051015;28;45328;-79
2022/12/12 09:26:27;;;;;;;;;41.75;34.00;;;;;8.40;72.30;99165.97;5056670;28;45426;-81
2022/12/12 09:28:52;;;;;;;;;23.75;21.50;;;;;8.49;72.01;99152.25;5057702;28;45469;-82
2022/12/12 09:31:18;;;;;;;;;14.25;12.75;;;;;8.59;71.60;99155.88;5057015;28;45674;-81
2022/12/12 09:33:43;;;;;;;;;13.25;11.00;;;;;8.69;71.35;99142.16;5057068;28;45465;-80
2022/12/12 09:36:11;;;;;;;;;11.75;10.00;;;;;8.81;71.04;99133.66;5055294;28;45496;-81
2022/12/12 09:38:36;;;;;;;;;10.00;8.00;;;;;8.90;70.38;99129.44;5042310;28;46553;-81
2022/12/12 09:41:08;;;;;;;;;5.25;4.75;;;;;9.00;70.10;99122.63;5056967;28;45532;-81
2022/12/12 09:43:56;;;;;;;;;5.25;4.00;;;;;9.10;69.60;99101.06;5052601;28;45484;-81
2022/12/12 09:46:39;;;;;;;;;3.00;3.00;;;;;9.23;68.55;99086.47;5056729;28;45594;-81
2022/12/12 09:49:32;;;;;;;;;4.50;4.50;;;;;9.32;68.46;99070.91;5042433;28;45334;-81
2022/12/12 09:51:59;;;;;;;;;3.25;3.00;;;;;9.45;68.06;99063.22;5056969;28;46311;-81
2022/12/12 09:54:26;;;;;;;;;5.50;5.00;;;;;9.53;67.61;99066.81;5040410;28;45397;-69
2022/12/12 09:57:03;;;;;;;;;3.00;2.50;;;;;9.58;67.58;99056.44;5057105;28;45487;-81
2022/12/12 09:59:45;;;;;;;;;3.00;2.00;;;;;9.65;67.60;99055.59;5056898;28;45214;-81
2022/12/12 10:02:22;;;;;;;;;4.50;4.00;;;;;9.68;67.67;99051.31;5055490;28;46234;-69
2022/12/12 10:05:00;;;;;;;;;3.00;3.00;;;;;9.73;67.21;99035.72;5041190;28;45508;-80
2022/12/12 10:07:46;;;;;;;;;3.25;3.25;;;;;9.75;67.59;99041.81;5056199;28;45392;-69
2022/12/12 10:10:23;;;;;;;;;4.00;3.00;;;;;9.76;67.85;99034.00;5055868;28;45376;-79
2022/12/12 10:12:50;;;;;;;;;6.50;6.00;;;;;9.79;67.81;99032.28;5055764;28;45618;-79
2022/12/12 10:15:27;;;;;;;;;7.25;5.00;;;;;9.80;67.95;99034.03;5045291;28;45341;-79
2022/12/12 10:17:55;;;;;;;;;4.75;3.50;;;;;9.79;68.45;99012.31;5052483;28;45342;-72
2022/12/12 10:20:31;;;;;;;;;3.00;3.00;;;;;9.72;68.45;98993.09;5056545;28;45267;-81
2022/12/12 10:23:24;;;;;;;;;4.25;4.00;;;;;9.86;68.59;98998.44;5054878;28;45480;-73
2022/12/12 10:26:09;;;;;;;;;5.00;4.00;;;;;9.89;68.31;98989.78;5056562;28;45346;-80
2022/12/12 10:28:35;;;;;;;;;3.25;3.00;;;;;9.84;68.72;98978.44;5055855;28;45321;-76
2022/12/12 10:31:24;;;;;;;;;10.00;9.00;;;;;9.90;68.83;98978.47;5055997;28;45508;-73
2022/12/12 10:34:19;;;;;;;;;5.50;4.50;;;;;9.92;69.10;98984.56;5052067;28;45484;-81
2022/12/12 10:36:48;;;;;;;;;4.00;4.00;;;;;9.96;69.04;98986.34;5054632;28;45558;-81
2022/12/12 10:39:19;;;;;;;;;6.00;5.00;;;;;9.96;69.29;98988.94;5055015;28;45574;-79
2022/12/12 10:42:10;;;;;;;;;6.50;5.75;;;;;9.96;69.43;98995.03;5056065;28;45289;-81
2022/12/12 10:44:48;;;;;;;;;15.00;10.75;;;;;9.97;69.58;98995.94;5054496;28;46544;-80
2022/12/12 10:47:14;;;;;;;;;26.00;22.50;;;;;9.76;70.49;98960.97;5055329;28;45501;-80
2022/12/12 10:49:39;;;;;;;;;16.00;12.75;;;;;9.80;70.21;98953.19;5055690;28;45713;-81
2022/12/12 10:52:19;;;;;;;;;15.25;14.25;;;;;9.92;70.71;98966.31;5055396;28;45697;-80
2022/12/12 10:54:54;;;;;;;;;19.00;17.50;;;;;9.83;71.20;98938.44;5055423;28;45323;-82
2022/12/12 10:57:26;;;;;;;;;10.25;9.75;;;;;9.93;72.11;98947.22;5055718;28;45427;-81
2022/12/12 10:59:57;;;;;;;;;11.50;11.00;;;;;9.76;72.03;98898.38;5054814;28;45685;-77
2022/12/12 11:02:34;;;;;;;;;8.75;8.00;;;;;9.75;72.41;98872.31;5049366;28;45555;-80
2022/12/12 11:05:07;;;;;;;;;20.00;17.50;;;;;10.01;72.63;98900.28;5047579;28;45523;-79
2022/12/12 11:07:38;;;;;;;;;11.50;10.00;;;;;10.04;72.67;98900.31;5054591;28;45314;-79
2022/12/12 11:10:20;;;;;;;;;3.50;3.50;;;;;10.03;73.17;98896.84;5055756;28;45525;-82
2022/12/12 11:12:53;;;;;;;;;2.00;1.75;;;;;10.03;73.25;98891.63;5054050;28;46015;-73
2022/12/12 11:15:18;;;;;;;;;6.25;6.25;;;;;10.07;73.03;98892.50;5039930;28;45619;-78
2022/12/12 11:17:44;;;;;;;;;4.00;4.00;;;;;10.10;73.25;98906.41;5053699;28;45322;-80
2022/12/12 11:20:17;;;;;;;;;24.25;22.50;;;;;10.11;73.77;98925.56;5055516;28;45479;-78
2022/12/12 11:22:43;;;;;;;;;17.00;13.75;;;;;10.11;74.12;98929.06;5055342;28;45632;-75
2022/12/12 11:25:44;;;;;;;;;22.00;20.25;;;;;10.07;74.95;98945.56;5056661;28;45531;-74
2022/12/12 11:28:19;;;;;;;;;16.00;13.25;;;;;10.05;74.49;98954.25;5002488;28;45688;-75
2022/12/12 11:30:50;;;;;;;;;8.00;6.25;;;;;10.05;74.46;98957.72;5038511;28;46149;-75
2022/12/12 11:33:21;;;;;;;;;70.00;55.75;;;;;10.00;75.30;98953.31;5049358;28;45421;-75
2022/12/12 11:35:53;;;;;;;;;18.00;17.00;;;;;9.99;74.69;98962.00;5057634;28;46548;-72
2022/12/12 11:38:29;;;;;;;;;23.25;22.50;;;;;10.00;75.30;98958.53;5056913;28;45468;-74
2022/12/12 11:41:02;;;;;;;;;11.50;10.75;;;;;9.77;75.34;98907.09;5055655;28;45483;-75
2022/12/12 11:43:30;;;;;;;;;20.25;20.00;;;;;9.94;75.81;98931.53;5060043;28;46547;-75
2022/12/12 11:46:16;;;;;;;;;30.50;30.00;;;;;9.89;76.14;98906.31;5056111;28;46084;-72
2022/12/12 11:48:50;;;;;;;;;40.00;36.75;;;;;10.01;76.54;98895.94;5056670;28;45530;-74
2022/12/12 11:51:43;;;;;;;;;20.75;18.50;;;;;10.01;76.59;98885.50;5055592;28;45709;-74
2022/12/12 11:54:21;;;;;;;;;21.00;20.00;;;;;10.02;76.17;98876.81;5051676;28;45618;-67
2022/12/12 11:57:19;;;;;;;;;17.50;17.25;;;;;10.04;76.71;98856.81;5058106;28;45437;-75
2022/12/12 11:59:48;;;;;;;;;22.25;21.00;;;;;10.07;76.59;98822.06;5054046;28;45773;-74
2022/12/12 12:02:30;;;;;;;;;33.25;31.25;;;;;10.08;76.85;98795.97;5058192;28;45532;-72
2022/12/12 12:05:14;;;;;;;;;14.75;13.75;;;;;10.11;76.38;98814.25;5058698;28;45419;-73
2022/12/12 12:08:17;;;;;;;;;9.00;6.50;;;;;10.14;76.66;98811.63;5054233;28;45403;-73
2022/12/12 12:11:03;;;;;;;;;16.75;14.75;;;;;10.16;76.64;98788.16;5056048;28;46161;-72
2022/12/12 12:14:04;;;;;;;;;4.50;3.00;;;;;10.16;76.46;98747.28;5055908;28;45539;-73
2022/12/12 12:16:59;;;;;;;;;8.75;8.75;;;;;10.17;76.51;98745.56;5049636;28;45521;-74